Terminal Aerodrome Forecast
Issued by NWS Shreveport, LA

Home | Current Version | Previous Version | Text Only | Print | Product List | Glossary On
Versions: 1 2 3 4 5 6 7 8 9 10 11 12 13 14 15 16 17 18 19 20 21 22 23 24 25 26 27 28 29 30 31 32 33
000
FTUS44 KSHV 202326
TAFMLU
TAF
KMLU 202326Z 2100/2124 18004KT P6SM SCT250
      TEMPO 2110/2114 BKN015
     FM211400 20009KT P6SM BKN015
      TEMPO 2114/2116 SCT030 BKN250
     FM211600 21010KT P6SM SCT035 BKN250
     FM211900 20012KT P6SM SCT045 BKN250=

USA.gov is the U.S. government's official web portal to all federal, state and local government web resources and services.